KLVL Airport (Brunswick Muni) Information

FAA: LVL - ICAO: KLVL

KLVL Airport Location

State Virginia
County Brunswick
City Lawrenceville
KLVL Airport is 3 miles east of Lawrenceville, VA.
Latitude 36-46-22.2000N
Longitude 077-47-39.3000W
Elevation 328ft

KLVL Airport METARs

METAR KLVL 020115Z AUTO 00000KT 10SM CLR 02/02 A3032 RMK AO1 T00220017
Altimeter 30.32"
Temperature 2.2°C (36.0°F)
Wind 0° at 0KT
Clouds Skies are clear.
Visibility 10.0mi
Time observed: 2023-02-02T01:15:00Z

KLVL Airport Details

Status Operational
Activation January 1942
Ownership Public
Usage Public
Chart WASHINGTON
ATC on-site No
Beacon schedule sunset-sunrise
Beacon color clear green

KLVL Airport Contacts

Owner COUNTY OF BRUNSWICK
Owner address PO BOX 399, LAWRENCEVILLE, VA 23868
Owner phone 434-848-3107
Manager ALAN VERLING & BILL COPENING
Manager address 2900 TYLER DRIVE, ROANOKE, VA 24141
Manager phone 540-731-2000

KLVL Airport (Brunswick Muni) Radio Frequencies

KLVL (Airport) Radio Frequencies

UNICOM 122.8
Common traffic advisory frequency (CTAF) 122.8